createdAt,value
2022-09-23T00:00:52.515Z,66.00390625
2022-09-23T00:01:48.934Z,65.57617188
2022-09-23T00:02:50.185Z,65.80566406
2022-09-23T00:03:44.673Z,66.48632813
2022-09-23T00:04:46.631Z,66.37402344
2022-09-23T00:05:43.854Z,66.4375
2022-09-23T00:07:44.066Z,66.12988281
2022-09-23T00:08:43.018Z,66.33203125
2022-09-23T00:09:37.390Z,65.9453125
2022-09-23T00:10:36.748Z,66.3828125
2022-09-23T00:11:32.016Z,66.48632813
2022-09-23T00:12:31.049Z,66.37402344
2022-09-23T00:13:26.836Z,66.63085938
2022-09-23T00:14:25.934Z,66.52539063
2022-09-23T00:15:21.104Z,66.41210938
2022-09-23T00:16:20.835Z,66.37695313
2022-09-23T00:18:17.774Z,66.97070313
2022-09-23T00:19:14.215Z,66.6171875
2022-09-23T00:20:13.944Z,66.9140625
2022-09-23T00:21:08.626Z,67.06054688
2022-09-23T00:23:02.438Z,66.79296875
2022-09-23T00:24:04.341Z,66.93945313
2022-09-23T00:24:58.851Z,66.73632813
2022-09-23T00:26:01.055Z,66.66699219
2022-09-23T00:26:53.678Z,66.60546875
2022-09-23T00:27:55.688Z,66.80957031
2022-09-23T00:28:49.059Z,66.8984375
2022-09-23T00:29:52.052Z,66.79980469
2022-09-23T00:30:44.604Z,66.87792969
2022-09-23T00:31:45.823Z,66.64550781
2022-09-23T00:32:47.640Z,66.4375
2022-09-23T00:33:42.155Z,66.62597656
2022-09-23T00:34:47.411Z,66.70410156
2022-09-23T00:36:17.584Z,66.81933594
2022-09-23T00:36:57.656Z,66.33398438
2022-09-23T00:37:58.250Z,66.49316406
2022-09-23T00:38:56.523Z,66.27929688
2022-09-23T00:39:54.595Z,66.41308594
2022-09-23T00:40:54.190Z,66.20898438
2022-09-23T00:42:52.024Z,66.50488281
2022-09-23T00:43:52.183Z,66.609375
2022-09-23T00:44:51.615Z,66.60839844
2022-09-23T00:45:47.011Z,66.35742188
2022-09-23T00:46:47.200Z,66.41601563
2022-09-23T00:47:45.102Z,66.40234375
2022-09-23T00:48:45.321Z,66.47851563
2022-09-23T00:49:40.657Z,66.86328125
2022-09-23T00:50:45.340Z,66.78125
2022-09-23T00:51:44.494Z,66.75
2022-09-23T00:52:44.015Z,66.86328125
2022-09-23T00:53:47.443Z,67.08886719
2022-09-23T00:54:45.905Z,67.03808594
2022-09-23T00:55:45.569Z,67.48828125
2022-09-23T00:57:44.075Z,67.23046875
2022-09-23T00:58:39.278Z,67.10546875
2022-09-23T00:59:37.581Z,67.07421875
2022-09-23T01:00:33.966Z,66.99511719
2022-09-23T01:01:40.602Z,67.13378906
2022-09-23T01:02:40.510Z,67.3125
2022-09-23T01:03:39.366Z,67.20800781
2022-09-23T01:04:39.991Z,67.13964844
2022-09-23T01:06:45.891Z,67.14453125
2022-09-23T01:07:29.449Z,67.07226563
2022-09-23T01:08:29.104Z,66.77246094
2022-09-23T01:09:31.826Z,66.75683594
2022-09-23T01:10:31.447Z,67.00195313
2022-09-23T01:12:29.222Z,67.08984375
2022-09-23T01:13:26.359Z,66.78222656
2022-09-23T01:14:29.328Z,67.11425781
2022-09-23T01:15:25.683Z,67.4140625
2022-09-23T01:16:31.659Z,67.37988281
2022-09-23T01:17:25.777Z,67.50585938
2022-09-23T01:18:29.277Z,67.17480469
2022-09-23T01:19:25.494Z,67.34082031
2022-09-23T01:20:27.633Z,67.37011719
2022-09-23T01:22:25.965Z,67.8515625
2022-09-23T01:23:28.337Z,68.09667969
2022-09-23T01:24:25.091Z,68.07128906
2022-09-23T01:25:28.087Z,67.97753906
2022-09-23T01:27:27.985Z,68.08984375
2022-09-23T01:28:24.366Z,67.76171875
2022-09-23T01:29:28.892Z,67.77441406
2022-09-23T01:30:23.219Z,67.80664063
2022-09-23T01:31:23.822Z,67.79882813
2022-09-23T01:32:23.919Z,67.61035156
2022-09-23T01:33:26.542Z,67.92382813
2022-09-23T01:34:32.430Z,67.73632813
2022-09-23T01:35:36.307Z,68.0859375
2022-09-23T01:37:47.828Z,67.74609375
2022-09-23T01:38:28.026Z,67.74414063
2022-09-23T01:39:09.853Z,67.54785156
2022-09-23T01:40:08.348Z,67.37792969
2022-09-23T01:41:15.465Z,67.63769531
2022-09-23T01:43:10.868Z,67.18457031
2022-09-23T01:44:12.761Z,67.45117188
2022-09-23T01:45:13.549Z,67.3984375
2022-09-23T01:46:08.814Z,67.08203125
2022-09-23T01:48:08.909Z,66.75683594
2022-09-23T01:49:11.889Z,66.93261719
2022-09-23T01:50:11.089Z,67.22558594
2022-09-23T01:51:08.900Z,67.03125
2022-09-23T01:53:04.878Z,67.11035156
2022-09-23T01:54:06.457Z,67.25292969
2022-09-23T01:55:05.719Z,67.734375
2022-09-23T01:56:08.384Z,67.23828125
2022-09-23T01:57:06.424Z,66.98925781
2022-09-23T01:58:05.490Z,67.12304688
2022-09-23T01:59:01.678Z,66.88183594
2022-09-23T02:00:01.352Z,67.14160156
2022-09-23T02:00:58.024Z,66.88964844
2022-09-23T02:01:58.375Z,67.1875
2022-09-23T02:03:02.192Z,66.75878906
2022-09-23T02:04:01.735Z,66.79394531
2022-09-23T02:05:06.763Z,64.62597656
2022-09-23T02:06:08.600Z,66.19140625
2022-09-23T02:07:05.989Z,67.09667969
2022-09-23T02:08:05.827Z,67.18066406
2022-09-23T02:09:44.669Z,66.97753906
2022-09-23T02:12:04.045Z,64.8828125
2022-09-23T02:12:44.526Z,64.22851563
2022-09-23T02:13:47.369Z,64.46191406
2022-09-23T02:14:45.635Z,64.62109375
2022-09-23T02:15:40.850Z,65.25390625
2022-09-23T02:17:39.357Z,65.39257813
2022-09-23T02:18:43.926Z,65.56640625
2022-09-23T02:19:42.665Z,65.52441406
2022-09-23T02:20:41.254Z,65.3046875
2022-09-23T02:22:38.877Z,64.58789063
2022-09-23T02:23:38.191Z,64.41308594
2022-09-23T02:24:32.598Z,64.77050781
2022-09-23T02:25:29.436Z,64.81445313
2022-09-23T02:26:27.529Z,65.12988281
2022-09-23T02:28:22.902Z,65.40039063
2022-09-23T02:29:19.281Z,65.40039063
2022-09-23T02:30:16.918Z,65.58105469
2022-09-23T02:31:15.073Z,65.65722656
2022-09-23T02:33:30.114Z,65.34570313
2022-09-23T02:34:21.680Z,64.296875
2022-09-23T02:35:17.006Z,64.70410156
2022-09-23T02:36:17.062Z,64.81640625
2022-09-23T02:37:10.560Z,65.02050781
2022-09-23T02:38:11.465Z,65.11035156
2022-09-23T02:39:04.238Z,64.21191406
2022-09-23T02:40:49.819Z,63.546875
2022-09-23T02:41:30.794Z,64.04296875
2022-09-23T02:42:30.832Z,63.79003906
2022-09-23T02:43:29.779Z,63.6875
2022-09-23T02:44:28.707Z,63.62792969
2022-09-23T02:45:24.958Z,62.37207031
2022-09-23T02:46:25.650Z,62.8828125
2022-09-23T02:47:26.214Z,63.3125
2022-09-23T02:48:26.672Z,63.34472656
2022-09-23T02:49:26.462Z,63.78320313
2022-09-23T02:50:28.860Z,63.51171875
2022-09-23T02:51:24.343Z,63.91015625
2022-09-23T02:53:25.204Z,63.609375
2022-09-23T02:54:20.167Z,63.88769531
2022-09-23T02:55:26.623Z,64.08789063
2022-09-23T02:56:20.804Z,64.25976563
2022-09-23T02:58:17.024Z,64
2022-09-23T02:59:21.239Z,64.09570313
2022-09-23T03:00:18.484Z,64.10253906
2022-09-23T03:01:21.319Z,64.30859375
2022-09-23T03:03:18.129Z,63.49316406
2022-09-23T03:04:19.891Z,63.859375
2022-09-23T03:05:12.493Z,64.12011719
2022-09-23T03:06:16.185Z,64.4296875
2022-09-23T03:07:12.561Z,64.05761719
2022-09-23T03:08:13.477Z,64.19335938
2022-09-23T03:09:10.463Z,64.40722656
2022-09-23T03:10:09.306Z,64.5703125
2022-09-23T03:11:06.433Z,64.55859375
2022-09-23T03:12:07.714Z,64.86425781
2022-09-23T03:13:09.001Z,64.65527344
2022-09-23T03:14:55.284Z,64.12011719
2022-09-23T03:15:36.373Z,64.29882813
2022-09-23T03:16:34.576Z,64.63183594
2022-09-23T03:17:34.974Z,64.20507813
2022-09-23T03:18:30.202Z,64.515625
2022-09-23T03:19:31.264Z,64.53515625
2022-09-23T03:20:25.712Z,64.83496094
2022-09-23T03:21:32.245Z,64.52832031
2022-09-23T03:22:31.221Z,64.3671875
2022-09-23T03:23:26.546Z,64.73632813
2022-09-23T03:24:25.627Z,64.98925781
2022-09-23T03:25:21.700Z,64.734375
2022-09-23T03:26:20.754Z,65.19628906
2022-09-23T03:28:20.223Z,65.19726563
2022-09-23T03:29:12.876Z,65.56933594
2022-09-23T03:30:10.903Z,65.4453125
2022-09-23T03:31:12.448Z,65.28417969
2022-09-23T03:33:16.904Z,65.65917969
2022-09-23T03:34:11.270Z,65.47753906
2022-09-23T03:35:10.948Z,65.52050781
2022-09-23T03:36:12.848Z,65.49707031
2022-09-23T03:38:12.889Z,65.6484375
2022-09-23T03:39:14.942Z,65.6484375
2022-09-23T03:40:10.271Z,65.55859375
2022-09-23T03:41:13.965Z,65.68261719
2022-09-23T03:42:12.935Z,65.69628906
2022-09-23T03:43:14.505Z,65.65527344
2022-09-23T03:44:15.034Z,65.73144531
2022-09-23T03:45:10.377Z,66.04296875
2022-09-23T03:46:42.638Z,65.80957031
2022-09-23T03:48:21.550Z,65.52636719
2022-09-23T03:49:26.980Z,66.25488281
2022-09-23T03:50:23.350Z,65.98046875
2022-09-23T03:51:19.843Z,66.23632813
2022-09-23T03:52:19.616Z,66.02539063
2022-09-23T03:53:15.036Z,66.05664063
2022-09-23T03:54:24.064Z,66.28613281
2022-09-23T03:55:25.733Z,66.08789063
2022-09-23T03:56:24.954Z,66.36914063
2022-09-23T03:57:28.150Z,66.34570313
2022-09-23T03:58:32.295Z,66.56738281
2022-09-23T03:59:30.482Z,66.61523438
2022-09-23T04:00:30.824Z,66.34375
2022-09-23T04:01:26.129Z,66.63574219
2022-09-23T04:03:22.332Z,66.69238281
2022-09-23T04:04:24.442Z,66.80273438
2022-09-23T04:05:21.217Z,66.97460938
2022-09-23T04:06:22.264Z,66.69921875
2022-09-23T04:07:18.794Z,66.37890625
2022-09-23T04:08:27.562Z,66.32617188
2022-09-23T04:09:23.065Z,66.80859375
2022-09-23T04:10:23.548Z,66.95800781
2022-09-23T04:11:27.441Z,67.31542969
2022-09-23T04:13:29.017Z,66.99609375
2022-09-23T04:14:32.076Z,67.24121094
2022-09-23T04:15:27.348Z,66.86914063
2022-09-23T04:16:30.279Z,66.98144531
2022-09-23T04:18:35.671Z,66.87207031
2022-09-23T04:19:33.156Z,66.82421875
2022-09-23T04:20:32.023Z,67.10351563
2022-09-23T04:22:32.629Z,67.21582031
2022-09-23T04:23:35.553Z,67.13964844
2022-09-23T04:24:37.813Z,67.19628906
2022-09-23T04:25:42.480Z,67.12402344
2022-09-23T04:27:37.907Z,67.12597656
2022-09-23T04:28:39.602Z,67.31347656
2022-09-23T04:29:34.663Z,67.35546875
2022-09-23T04:30:36.307Z,67.28808594
2022-09-23T04:33:06.673Z,67.0859375
2022-09-23T04:34:50.441Z,66.38378906
2022-09-23T04:35:45.258Z,66.16796875
2022-09-23T04:37:41.440Z,66.33886719
2022-09-23T04:38:44.195Z,66.59082031
2022-09-23T04:39:44.258Z,66.95410156
2022-09-23T04:40:44.713Z,67.34082031
2022-09-23T04:42:49.848Z,67.53125
2022-09-23T04:43:54.408Z,67.25976563
2022-09-23T04:44:48.561Z,67.48730469
2022-09-23T04:46:28.356Z,67.17382813
2022-09-23T04:48:14.483Z,66.78320313
2022-09-23T04:48:54.268Z,66.48632813
2022-09-23T04:49:55.524Z,66.48925781
2022-09-23T04:49:59.883Z,66.48925781
2022-09-23T04:50:52.725Z,66.50488281
2022-09-23T04:52:47.879Z,66.67382813
2022-09-23T04:53:43.277Z,66.60253906
2022-09-23T04:54:44.296Z,66.88769531
2022-09-23T04:55:39.355Z,67.09375
2022-09-23T04:56:38.386Z,67.16992188
2022-09-23T04:57:37.389Z,67.14160156
2022-09-23T04:58:35.837Z,67.67675781
2022-09-23T04:59:30.222Z,67.70410156
2022-09-23T05:00:31.362Z,67.83886719
2022-09-23T05:01:24.348Z,67.94824219
2022-09-23T05:02:27.437Z,67.78808594
2022-09-23T05:03:19.020Z,67.796875
2022-09-23T05:04:20.819Z,68.13671875
2022-09-23T05:05:16.235Z,68.11035156
2022-09-23T05:06:19.124Z,67.60253906
2022-09-23T05:07:21.907Z,67.67773438
2022-09-23T05:08:23.076Z,68.01757813
2022-09-23T05:09:14.545Z,67.78710938
2022-09-23T05:10:13.218Z,68.01074219
2022-09-23T05:11:13.205Z,67.91113281
2022-09-23T05:13:11.094Z,68.52441406
2022-09-23T05:14:17.450Z,68.03320313
2022-09-23T05:15:14.046Z,68.16796875
2022-09-23T05:16:13.264Z,67.97851563
2022-09-23T05:18:06.518Z,68.17773438
2022-09-23T05:19:01.135Z,68.45214844
2022-09-23T05:20:01.662Z,68.51660156
2022-09-23T05:20:55.439Z,68.80566406
2022-09-23T05:22:52.369Z,68.63574219
2022-09-23T05:23:52.246Z,68.76660156
2022-09-23T05:24:49.049Z,68.59375
2022-09-23T05:25:46.477Z,68.51464844
2022-09-23T05:27:40.350Z,68.79199219
2022-09-23T05:28:39.515Z,68.9140625
2022-09-23T05:29:35.002Z,69.13964844
2022-09-23T05:30:36.062Z,68.94726563
2022-09-23T05:32:31.212Z,69.01171875
2022-09-23T05:33:22.740Z,68.94335938
2022-09-23T05:34:23.881Z,68.88867188
2022-09-23T05:35:15.316Z,68.85644531
2022-09-23T05:36:12.404Z,68.90527344
2022-09-23T05:38:58.285Z,68.86621094
2022-09-23T05:39:40.214Z,68.76269531
2022-09-23T05:40:37.470Z,68.59960938
2022-09-23T05:41:40.056Z,68.45019531
2022-09-23T05:42:38.103Z,68.25878906
2022-09-23T05:43:39.156Z,68.27050781
2022-09-23T05:44:38.201Z,68.37695313
2022-09-23T05:45:44.939Z,68.68457031
2022-09-23T05:46:39.531Z,68.84277344
2022-09-23T05:47:44.220Z,68.81542969
2022-09-23T05:48:42.107Z,68.68652344
2022-09-23T05:49:58.497Z,68.8828125
2022-09-23T05:49:59.054Z,68.8828125
2022-09-23T05:49:59.595Z,68.8828125
2022-09-23T05:50:40.308Z,69.09765625
2022-09-23T05:52:35.770Z,68.54980469
2022-09-23T05:53:31.003Z,68.91699219
2022-09-23T05:54:30.470Z,68.66015625
2022-09-23T05:55:25.130Z,68.86914063
2022-09-23T05:56:25.423Z,68.83496094
2022-09-23T05:57:20.627Z,68.85742188
2022-09-23T05:58:23.116Z,68.77734375
2022-09-23T05:59:15.889Z,68.99707031
2022-09-23T06:00:16.150Z,69.17382813
2022-09-23T06:01:11.538Z,68.86914063
2022-09-23T06:03:14.635Z,69.22558594
2022-09-23T06:04:09.964Z,69.20996094
2022-09-23T06:05:11.354Z,69.34472656
2022-09-23T06:06:11.531Z,69.1875
2022-09-23T06:07:03.930Z,69.71972656
2022-09-23T06:08:03.362Z,69.32519531
2022-09-23T06:09:05.544Z,69.45214844
2022-09-23T06:09:59.182Z,69.39746094
2022-09-23T06:10:58.333Z,69.66503906
2022-09-23T06:12:55.393Z,69.93945313
2022-09-23T06:13:50.625Z,69.66699219
2022-09-23T06:14:49.431Z,69.75488281
2022-09-23T06:15:45.846Z,69.734375
2022-09-23T06:16:45.896Z,69.63867188
2022-09-23T06:17:40.277Z,69.82519531
2022-09-23T06:18:44.955Z,69.82714844
2022-09-23T06:19:37.519Z,69.66015625
2022-09-23T06:20:39.577Z,69.78222656
2022-09-23T06:21:33.916Z,69.58691406
2022-09-23T06:22:40.132Z,70.08007813
2022-09-23T06:23:32.999Z,69.96875
2022-09-23T06:24:36.049Z,69.98339844
2022-09-23T06:25:28.776Z,69.99609375
2022-09-23T06:26:25.144Z,69.77246094
2022-09-23T06:28:48.556Z,69.8046875
2022-09-23T06:29:28.536Z,69.68457031
2022-09-23T06:30:27.690Z,69.90234375
2022-09-23T06:31:28.796Z,69.94140625
2022-09-23T06:33:36.297Z,69.75292969
2022-09-23T06:33:36.778Z,69.75292969
2022-09-23T06:33:37.456Z,69.75292969
2022-09-23T06:34:25.711Z,69.68164063
2022-09-23T06:35:27.021Z,69.47265625
2022-09-23T06:35:27.816Z,69.47265625
2022-09-23T06:36:40.990Z,68.83203125
2022-09-23T06:36:42.083Z,68.83203125
2022-09-23T06:36:43.064Z,68.83203125
2022-09-23T06:38:20.201Z,69.11035156
2022-09-23T06:39:23.219Z,68.17285156
2022-09-23T06:40:17.599Z,67.87402344
2022-09-23T06:41:17.835Z,68.56152344
2022-09-23T06:42:13.269Z,68.70117188
2022-09-23T06:43:14.988Z,68.37988281
2022-09-23T06:44:10.241Z,68.06738281
2022-09-23T06:45:11.429Z,67.89257813
2022-09-23T06:46:07.017Z,67.14941406
2022-09-23T06:48:03.765Z,67.89160156
2022-09-23T06:49:03.373Z,67.91992188
2022-09-23T06:49:58.692Z,68.2265625
2022-09-23T06:51:01.684Z,67.19726563
2022-09-23T06:52:52.599Z,65.96777344
2022-09-23T06:53:52.923Z,66.71582031
2022-09-23T06:54:48.339Z,66.99023438
2022-09-23T06:55:51.273Z,66.44238281
2022-09-23T06:57:47.744Z,65.63964844
2022-09-23T06:58:41.331Z,65.78222656
2022-09-23T06:59:45.549Z,66.1171875
2022-09-23T07:00:39.903Z,66.28222656
2022-09-23T07:02:36.009Z,67.046875
2022-09-23T07:03:39.033Z,66.77050781
2022-09-23T07:04:32.165Z,66.32714844
2022-09-23T07:05:36.966Z,66.41113281
2022-09-23T07:07:34.929Z,66.43164063
2022-09-23T07:08:31.148Z,66.12890625
2022-09-23T07:10:09.253Z,65.07910156
2022-09-23T07:10:49.292Z,64.37792969
2022-09-23T07:12:47.893Z,62.67480469
2022-09-23T07:13:43.147Z,62.53417969
2022-09-23T07:14:44.702Z,62.70800781
2022-09-23T07:15:40.122Z,63.55761719
2022-09-23T07:17:34.898Z,63.24707031
2022-09-23T07:18:36.914Z,63.45117188
2022-09-23T07:19:31.449Z,63.85058594
2022-09-23T07:20:31.882Z,64.44238281
2022-09-23T07:21:27.346Z,64.765625
2022-09-23T07:23:22.987Z,65.35058594
2022-09-23T07:24:22.696Z,65.3515625
2022-09-23T07:25:17.767Z,65.28515625
2022-09-23T07:26:18.225Z,65.06152344
2022-09-23T07:28:13.966Z,64.77734375
2022-09-23T07:29:09.237Z,64.69042969
2022-09-23T07:30:17.025Z,64.58105469
2022-09-23T07:30:23.839Z,64.58105469
2022-09-23T07:30:24.825Z,64.58105469
2022-09-23T07:31:07.666Z,64.38378906
2022-09-23T07:33:11.679Z,63.85644531
2022-09-23T07:33:25.478Z,63.85644531
2022-09-23T07:33:29.582Z,63.85644531
2022-09-23T07:34:02.481Z,63.63085938
2022-09-23T07:34:57.927Z,62.89257813
2022-09-23T07:35:58.707Z,62.86132813
2022-09-23T07:37:54.145Z,62.41796875
2022-09-23T07:38:49.340Z,62.16796875
2022-09-23T07:39:52.039Z,62.3828125
2022-09-23T07:40:45.648Z,62.84667969
2022-09-23T07:42:41.242Z,62.49707031
2022-09-23T07:43:41.325Z,62.99609375
2022-09-23T07:44:37.749Z,63.42871094
2022-09-23T07:45:40.613Z,63.38574219
2022-09-23T07:47:31.545Z,63.43359375
2022-09-23T07:48:34.457Z,63.05175781
2022-09-23T07:49:27.633Z,63.24511719
2022-09-23T07:50:25.650Z,63.24902344
2022-09-23T07:51:25.543Z,62.36523438
2022-09-23T07:52:26.744Z,62.25488281
2022-09-23T07:53:19.747Z,62.19042969
2022-09-23T07:53:58.813Z,62.36035156
2022-09-23T07:54:54.535Z,62.36523438
2022-09-23T07:56:33.967Z,62.31933594
2022-09-23T07:58:15.070Z,62.00097656
2022-09-23T07:59:11.470Z,61.91113281
2022-09-23T08:00:11.671Z,61.83203125
2022-09-23T08:01:07.448Z,61.98925781
2022-09-23T08:02:08.019Z,62.29882813
2022-09-23T08:03:06.572Z,62.80664063
2022-09-23T08:04:02.069Z,62.18652344
2022-09-23T08:05:02.499Z,62.20996094
2022-09-23T08:05:58.770Z,61.45117188
2022-09-23T08:07:55.251Z,61.17089844
2022-09-23T08:08:58.684Z,61.68457031
2022-09-23T08:09:53.049Z,62.04003906
2022-09-23T08:10:55.295Z,61.47460938
2022-09-23T08:11:49.443Z,61.796875
2022-09-23T08:12:50.817Z,61.94628906
2022-09-23T08:13:46.675Z,62.31347656
2022-09-23T08:14:45.877Z,61.61328125
2022-09-23T08:15:53.280Z,61.87695313
2022-09-23T08:15:55.590Z,61.87695313
2022-09-23T08:16:45.345Z,61.49121094
2022-09-23T08:17:42.276Z,61.2734375
2022-09-23T08:18:50.230Z,61.09667969
2022-09-23T08:19:40.954Z,60.36328125
2022-09-23T08:20:37.389Z,60.02929688
2022-09-23T08:22:36.260Z,60.54101563
2022-09-23T08:23:32.001Z,61.15429688
2022-09-23T08:24:35.288Z,61.36621094
2022-09-23T08:25:33.768Z,61.72949219
2022-09-23T08:26:28.627Z,61.95703125
2022-09-23T08:29:12.229Z,61.72070313
2022-09-23T08:30:49.572Z,60.94238281
2022-09-23T08:31:28.702Z,60.74804688
2022-09-23T08:32:25.973Z,60.34472656
2022-09-23T08:33:25.828Z,60.60644531
2022-09-23T08:34:20.664Z,61.00292969
2022-09-23T08:35:20.445Z,60.51367188
2022-09-23T08:36:15.651Z,60.93457031
2022-09-23T08:37:15.060Z,61.09472656
2022-09-23T08:38:11.097Z,61.08300781
2022-09-23T08:39:09.903Z,60.82421875
2022-09-23T08:40:08.337Z,60.796875
2022-09-23T08:41:04.424Z,59.97167969
2022-09-23T08:42:03.285Z,59.44140625
2022-09-23T08:42:59.087Z,59.80078125
2022-09-23T08:43:59.051Z,59.83984375
2022-09-23T08:44:56.123Z,59.66113281
2022-09-23T08:45:58.677Z,59.671875
2022-09-23T08:46:51.137Z,60.08007813
2022-09-23T08:47:53.644Z,60.16113281
2022-09-23T08:48:46.187Z,59.49023438
2022-09-23T08:49:49.116Z,59.13769531
2022-09-23T08:50:42.517Z,59.16015625
2022-09-23T08:51:44.539Z,59.10253906
2022-09-23T08:52:37.119Z,58.98828125
2022-09-23T08:53:39.613Z,58.92285156
2022-09-23T08:54:34.757Z,58.92480469
2022-09-23T08:55:30.055Z,58.73535156
2022-09-23T08:56:29.528Z,59.38378906
2022-09-23T08:57:24.590Z,59.55664063
2022-09-23T08:58:25.930Z,59.20410156
2022-09-23T08:59:20.318Z,59.35351563
2022-09-23T09:00:19.717Z,59.50390625
2022-09-23T09:01:16.114Z,59.72363281
2022-09-23T09:02:16.338Z,59.83203125
2022-09-23T09:03:11.559Z,59.32324219
2022-09-23T09:04:13.999Z,57.57128906
2022-09-23T09:05:07.036Z,59.02734375
2022-09-23T09:06:05.032Z,59.51660156
2022-09-23T09:07:31.620Z,59.56152344
2022-09-23T09:07:35.709Z,59.56152344
2022-09-23T09:08:01.956Z,60.47265625
2022-09-23T09:08:59.605Z,60.49902344
2022-09-23T09:09:59.343Z,59.63671875
2022-09-23T09:10:54.576Z,59.15722656
2022-09-23T09:12:50.493Z,59.39257813
2022-09-23T09:14:24.759Z,58.33496094
2022-09-23T09:16:02.722Z,57.83789063
2022-09-23T09:16:58.901Z,57.375
2022-09-23T09:17:00.570Z,57.375
2022-09-23T09:17:00.999Z,57.375
2022-09-23T09:17:40.340Z,57.13378906
2022-09-23T09:18:40.261Z,57.14746094
2022-09-23T09:19:38.736Z,57.08984375
2022-09-23T09:20:34.123Z,56.79296875
2022-09-23T09:21:33.999Z,57.49609375
2022-09-23T09:23:28.844Z,58.43359375
2022-09-23T09:24:24.053Z,57.45214844
2022-09-23T09:25:23.565Z,57.609375
2022-09-23T09:26:18.740Z,58.24316406
2022-09-23T09:27:21.051Z,58.42578125
2022-09-23T09:28:13.824Z,58.52539063
2022-09-23T09:29:34.332Z,58.85546875
2022-09-23T09:29:34.967Z,58.85546875
2022-09-23T09:29:36.212Z,58.85546875
2022-09-23T09:30:10.929Z,58.88085938
2022-09-23T09:31:13.723Z,58.35546875
2022-09-23T09:32:06.731Z,58.80078125
2022-09-23T09:33:06.917Z,59.42773438
2022-09-23T09:34:02.622Z,59.44335938
2022-09-23T09:35:03.010Z,59.60351563
2022-09-23T09:35:59.489Z,58.25195313
2022-09-23T09:37:04.675Z,58.0546875
2022-09-23T09:37:07.205Z,58.0546875
2022-09-23T09:38:00.899Z,58.55859375
2022-09-23T09:38:54.457Z,58.97265625
2022-09-23T09:39:55.228Z,59.45507813
2022-09-23T09:40:51.550Z,58.67578125
2022-09-23T09:42:49.431Z,56.74804688
2022-09-23T09:43:50.821Z,55.49023438
2022-09-23T09:44:47.281Z,55.30175781
2022-09-23T09:45:48.418Z,55.85449219
2022-09-23T09:47:49.050Z,55.82324219
2022-09-23T09:48:43.398Z,55.30371094
2022-09-23T09:49:47.471Z,55.62109375
2022-09-23T09:50:41.905Z,55.42089844
2022-09-23T09:52:43.650Z,56.68261719
2022-09-23T09:53:40.297Z,54.97070313
2022-09-23T09:54:36.473Z,54.40136719
2022-09-23T09:55:37.412Z,54.12890625
2022-09-23T09:56:33.753Z,54.63964844
2022-09-23T09:58:33.881Z,54.51074219
2022-09-23T09:59:30.612Z,54.203125
2022-09-23T10:01:09.918Z,53.46972656
2022-09-23T10:02:52.032Z,53.24609375
2022-09-23T10:03:48.898Z,53.38378906
2022-09-23T10:04:47.973Z,53.38574219
2022-09-23T10:05:49.395Z,53.50292969
2022-09-23T10:07:46.525Z,53.07617188
2022-09-23T10:08:42.881Z,52.69824219
2022-09-23T10:09:44.177Z,53.73632813
2022-09-23T10:10:40.778Z,53.71484375
2022-09-23T10:11:42.200Z,54.20605469
2022-09-23T10:12:38.714Z,54.60742188
2022-09-23T10:13:42.555Z,53.65820313
2022-09-23T10:14:36.853Z,53.59179688
2022-09-23T10:15:41.235Z,53.22949219
2022-09-23T10:15:44.923Z,53.22949219
2022-09-23T10:16:36.865Z,53.52832031
2022-09-23T10:17:37.799Z,53.15039063
2022-09-23T10:18:34.117Z,52.94628906
2022-09-23T10:19:32.866Z,53.01269531
2022-09-23T10:20:33.963Z,53.40234375
2022-09-23T10:21:30.321Z,54.10839844
2022-09-23T10:22:34.138Z,54.01757813
2022-09-23T10:23:27.756Z,54.56738281
2022-09-23T10:24:31.514Z,55.28710938
2022-09-23T10:25:25.262Z,54.93554688
2022-09-23T10:26:29.044Z,54.83300781
2022-09-23T10:28:26.640Z,54.33398438
2022-09-23T10:29:20.351Z,54.29101563
2022-09-23T10:30:19.125Z,55.05859375
2022-09-23T10:31:20.438Z,55.60742188
2022-09-23T10:32:16.852Z,54.93359375
2022-09-23T10:33:18.134Z,54.83300781
2022-09-23T10:34:14.292Z,54.79980469
2022-09-23T10:35:18.418Z,53.85449219
2022-09-23T10:36:12.709Z,53.96679688
2022-09-23T10:38:09.394Z,52.82421875
2022-09-23T10:39:12.782Z,52.27539063
2022-09-23T10:40:07.027Z,51.66503906
2022-09-23T10:41:06.880Z,53.12890625
2022-09-23T10:42:48.926Z,52.796875
2022-09-23T10:43:28.850Z,52.38769531
2022-09-23T10:44:27.009Z,52.62890625
2022-09-23T10:45:27.149Z,52.90234375
2022-09-23T10:47:45.186Z,52.41601563
2022-09-23T10:48:25.363Z,52.4296875
2022-09-23T10:49:23.168Z,52.31835938
2022-09-23T10:50:23.396Z,52.72851563
2022-09-23T10:51:22.686Z,53.75195313
2022-09-23T10:51:26.181Z,53.75195313
2022-09-23T10:52:19.586Z,53.71582031
2022-09-23T10:53:15.739Z,53.55664063
2022-09-23T10:54:15.483Z,54.12890625
2022-09-23T10:55:10.888Z,53.44140625
2022-09-23T10:56:11.113Z,53.578125
2022-09-23T10:57:06.534Z,54.11035156
2022-09-23T10:58:06.761Z,54.375
2022-09-23T10:59:02.181Z,53.984375
2022-09-23T11:00:04.983Z,53.99511719
2022-09-23T11:00:57.920Z,53.859375
2022-09-23T11:02:00.568Z,53.84570313
2022-09-23T11:02:54.031Z,53.72070313
2022-09-23T11:03:56.233Z,53.96191406
2022-09-23T11:04:49.480Z,53.30761719
2022-09-23T11:05:49.494Z,53.11621094
2022-09-23T11:06:44.857Z,53.78808594
2022-09-23T11:07:45.130Z,54.3359375
2022-09-23T11:08:41.214Z,54.50976563
2022-09-23T11:09:41.202Z,53.97363281
2022-09-23T11:10:46.098Z,54.32910156
2022-09-23T11:10:49.879Z,54.32910156
2022-09-23T11:11:37.743Z,54.43164063
2022-09-23T11:12:33.202Z,54.30859375
2022-09-23T11:13:33.490Z,54.43652344
2022-09-23T11:14:28.961Z,54.91699219
2022-09-23T11:15:31.804Z,54.99707031
2022-09-23T11:16:24.837Z,54.95117188
2022-09-23T11:18:20.753Z,53.73828125
2022-09-23T11:19:18.385Z,54.01367188
2022-09-23T11:20:18.583Z,53.89746094
2022-09-23T11:21:13.930Z,54.20703125
2022-09-23T11:23:36.621Z,54.27832031
2022-09-23T11:24:16.666Z,53.65332031
2022-09-23T11:25:17.408Z,54.49316406
2022-09-23T11:26:13.644Z,54.97558594
2022-09-23T11:28:12.310Z,54.94140625
2022-09-23T11:29:08.330Z,54.23242188
2022-09-23T11:30:08.697Z,54.01464844
2022-09-23T11:31:04.572Z,54.02636719
2022-09-23T11:33:04.677Z,55.03710938
2022-09-23T11:34:01.974Z,55.2109375
2022-09-23T11:34:58.533Z,55.86621094
2022-09-23T11:35:59.314Z,55.94824219
2022-09-23T11:36:55.516Z,55.63671875
2022-09-23T11:37:56.310Z,54.6328125
2022-09-23T11:38:52.105Z,54.58886719
2022-09-23T11:39:55.401Z,54.40820313
2022-09-23T11:40:49.709Z,54.77441406